sensor_id;sensor_type;location;lat;lon;timestamp;P1;durP1;ratioP1;P2;durP2;ratioP2
50683;SDS011;36654;45.042;38.994;2023-02-08T00:01:11;18.67;;;8.63;;
50683;SDS011;36654;45.042;38.994;2023-02-08T00:03:38;19.98;;;9.13;;
50683;SDS011;36654;45.042;38.994;2023-02-08T00:06:04;18.70;;;8.10;;
50683;SDS011;36654;45.042;38.994;2023-02-08T00:08:30;19.95;;;7.57;;
50683;SDS011;36654;45.042;38.994;2023-02-08T00:10:56;18.52;;;7.45;;
50683;SDS011;36654;45.042;38.994;2023-02-08T00:13:22;18.88;;;7.72;;
50683;SDS011;36654;45.042;38.994;2023-02-08T00:15:48;18.92;;;8.82;;
50683;SDS011;36654;45.042;38.994;2023-02-08T00:18:16;14.55;;;7.85;;
50683;SDS011;36654;45.042;38.994;2023-02-08T00:20:42;20.23;;;8.60;;
50683;SDS011;36654;45.042;38.994;2023-02-08T00:23:09;17.58;;;8.52;;
50683;SDS011;36654;45.042;38.994;2023-02-08T00:25:35;17.80;;;8.35;;
50683;SDS011;36654;45.042;38.994;2023-02-08T00:28:01;17.15;;;8.60;;
50683;SDS011;36654;45.042;38.994;2023-02-08T00:30:26;22.52;;;8.50;;
50683;SDS011;36654;45.042;38.994;2023-02-08T00:32:52;16.48;;;8.73;;
50683;SDS011;36654;45.042;38.994;2023-02-08T00:35:17;24.70;;;10.48;;
50683;SDS011;36654;45.042;38.994;2023-02-08T00:37:43;18.05;;;8.90;;
50683;SDS011;36654;45.042;38.994;2023-02-08T00:40:09;16.48;;;7.63;;
50683;SDS011;36654;45.042;38.994;2023-02-08T00:42:35;17.98;;;8.65;;
50683;SDS011;36654;45.042;38.994;2023-02-08T00:45:01;17.73;;;9.48;;
50683;SDS011;36654;45.042;38.994;2023-02-08T00:47:26;25.65;;;11.23;;
50683;SDS011;36654;45.042;38.994;2023-02-08T00:49:52;22.85;;;10.10;;
50683;SDS011;36654;45.042;38.994;2023-02-08T00:52:18;21.50;;;8.90;;
50683;SDS011;36654;45.042;38.994;2023-02-08T00:54:44;25.25;;;10.25;;
50683;SDS011;36654;45.042;38.994;2023-02-08T00:57:11;18.65;;;9.85;;
50683;SDS011;36654;45.042;38.994;2023-02-08T00:59:36;21.50;;;10.70;;
50683;SDS011;36654;45.042;38.994;2023-02-08T01:02:02;30.02;;;11.60;;
50683;SDS011;36654;45.042;38.994;2023-02-08T01:04:28;20.38;;;9.18;;
50683;SDS011;36654;45.042;38.994;2023-02-08T01:06:53;24.48;;;10.23;;
50683;SDS011;36654;45.042;38.994;2023-02-08T01:09:19;24.10;;;10.18;;
50683;SDS011;36654;45.042;38.994;2023-02-08T01:11:45;26.85;;;11.88;;
50683;SDS011;36654;45.042;38.994;2023-02-08T01:14:10;25.33;;;10.95;;
50683;SDS011;36654;45.042;38.994;2023-02-08T01:16:36;26.73;;;12.20;;
50683;SDS011;36654;45.042;38.994;2023-02-08T01:19:02;29.48;;;13.00;;
50683;SDS011;36654;45.042;38.994;2023-02-08T01:21:30;26.58;;;12.23;;
50683;SDS011;36654;45.042;38.994;2023-02-08T01:23:57;30.60;;;12.80;;
50683;SDS011;36654;45.042;38.994;2023-02-08T01:26:23;29.13;;;12.52;;
50683;SDS011;36654;45.042;38.994;2023-02-08T01:28:50;26.10;;;13.52;;
50683;SDS011;36654;45.042;38.994;2023-02-08T01:31:26;26.35;;;12.63;;
50683;SDS011;36654;45.042;38.994;2023-02-08T01:33:57;26.90;;;12.98;;
50683;SDS011;36654;45.042;38.994;2023-02-08T01:36:23;29.58;;;14.23;;
50683;SDS011;36654;45.042;38.994;2023-02-08T01:38:50;29.02;;;14.52;;
50683;SDS011;36654;45.042;38.994;2023-02-08T01:41:17;34.42;;;15.15;;
50683;SDS011;36654;45.042;38.994;2023-02-08T01:45:11;27.45;;;12.20;;
50683;SDS011;36654;45.042;38.994;2023-02-08T01:47:10;27.38;;;12.20;;
50683;SDS011;36654;45.042;38.994;2023-02-08T01:49:36;30.75;;;14.13;;
50683;SDS011;36654;45.042;38.994;2023-02-08T01:52:10;27.23;;;13.30;;
50683;SDS011;36654;45.042;38.994;2023-02-08T01:54:54;29.63;;;12.43;;
50683;SDS011;36654;45.042;38.994;2023-02-08T01:57:26;30.88;;;13.73;;
50683;SDS011;36654;45.042;38.994;2023-02-08T02:02:47;26.30;;;12.73;;
50683;SDS011;36654;45.042;38.994;2023-02-08T02:05:17;30.35;;;11.88;;
50683;SDS011;36654;45.042;38.994;2023-02-08T02:07:44;25.80;;;13.40;;
50683;SDS011;36654;45.042;38.994;2023-02-08T02:10:12;23.63;;;11.82;;
50683;SDS011;36654;45.042;38.994;2023-02-08T02:12:42;34.70;;;15.30;;
50683;SDS011;36654;45.042;38.994;2023-02-08T02:15:09;24.17;;;11.27;;
50683;SDS011;36654;45.042;38.994;2023-02-08T02:17:36;31.55;;;15.88;;
50683;SDS011;36654;45.042;38.994;2023-02-08T02:33:52;26.42;;;12.73;;
50683;SDS011;36654;45.042;38.994;2023-02-08T02:36:46;24.60;;;10.95;;
50683;SDS011;36654;45.042;38.994;2023-02-08T02:50:21;27.55;;;13.15;;
50683;SDS011;36654;45.042;38.994;2023-02-08T02:53:07;30.38;;;11.75;;
50683;SDS011;36654;45.042;38.994;2023-02-08T02:55:46;26.75;;;11.77;;
50683;SDS011;36654;45.042;38.994;2023-02-08T02:58:16;30.45;;;12.90;;
50683;SDS011;36654;45.042;38.994;2023-02-08T03:00:50;26.15;;;11.32;;
50683;SDS011;36654;45.042;38.994;2023-02-08T03:03:19;25.98;;;13.05;;
50683;SDS011;36654;45.042;38.994;2023-02-08T03:05:47;25.02;;;11.98;;
50683;SDS011;36654;45.042;38.994;2023-02-08T03:10:55;27.50;;;11.13;;
50683;SDS011;36654;45.042;38.994;2023-02-08T03:13:38;24.95;;;13.07;;
50683;SDS011;36654;45.042;38.994;2023-02-08T03:16:39;26.02;;;12.05;;
50683;SDS011;36654;45.042;38.994;2023-02-08T03:21:45;24.85;;;11.48;;
50683;SDS011;36654;45.042;38.994;2023-02-08T03:32:37;24.13;;;9.38;;
50683;SDS011;36654;45.042;38.994;2023-02-08T03:35:53;28.63;;;13.60;;
50683;SDS011;36654;45.042;38.994;2023-02-08T03:38:28;33.03;;;13.80;;
50683;SDS011;36654;45.042;38.994;2023-02-08T03:40:59;26.77;;;11.35;;
50683;SDS011;36654;45.042;38.994;2023-02-08T03:43:29;27.95;;;11.52;;
50683;SDS011;36654;45.042;38.994;2023-02-08T03:46:13;35.08;;;16.05;;
50683;SDS011;36654;45.042;38.994;2023-02-08T03:48:45;27.02;;;12.13;;
50683;SDS011;36654;45.042;38.994;2023-02-08T03:51:15;25.13;;;11.63;;
50683;SDS011;36654;45.042;38.994;2023-02-08T03:53:44;36.38;;;15.00;;
50683;SDS011;36654;45.042;38.994;2023-02-08T03:56:16;31.48;;;13.20;;
50683;SDS011;36654;45.042;38.994;2023-02-08T03:58:48;26.13;;;12.10;;
50683;SDS011;36654;45.042;38.994;2023-02-08T04:01:22;29.45;;;14.23;;
50683;SDS011;36654;45.042;38.994;2023-02-08T04:03:52;34.30;;;15.18;;
50683;SDS011;36654;45.042;38.994;2023-02-08T04:06:19;38.15;;;13.75;;
50683;SDS011;36654;45.042;38.994;2023-02-08T04:08:46;32.17;;;14.07;;
50683;SDS011;36654;45.042;38.994;2023-02-08T04:11:12;36.88;;;14.82;;
50683;SDS011;36654;45.042;38.994;2023-02-08T04:13:37;29.45;;;15.02;;
50683;SDS011;36654;45.042;38.994;2023-02-08T04:16:03;34.70;;;16.60;;
50683;SDS011;36654;45.042;38.994;2023-02-08T04:18:29;28.35;;;12.80;;
50683;SDS011;36654;45.042;38.994;2023-02-08T04:20:54;31.23;;;13.32;;
50683;SDS011;36654;45.042;38.994;2023-02-08T04:23:20;25.80;;;12.38;;
50683;SDS011;36654;45.042;38.994;2023-02-08T04:25:45;29.90;;;13.20;;
50683;SDS011;36654;45.042;38.994;2023-02-08T04:28:11;32.65;;;12.68;;
50683;SDS011;36654;45.042;38.994;2023-02-08T04:30:37;28.73;;;13.55;;
50683;SDS011;36654;45.042;38.994;2023-02-08T04:33:02;50.20;;;13.25;;
50683;SDS011;36654;45.042;38.994;2023-02-08T04:35:28;26.08;;;12.38;;
50683;SDS011;36654;45.042;38.994;2023-02-08T04:37:54;24.23;;;11.80;;
50683;SDS011;36654;45.042;38.994;2023-02-08T04:40:19;26.52;;;11.13;;
50683;SDS011;36654;45.042;38.994;2023-02-08T04:42:45;31.23;;;13.07;;
50683;SDS011;36654;45.042;38.994;2023-02-08T04:45:10;26.95;;;12.05;;
50683;SDS011;36654;45.042;38.994;2023-02-08T04:47:36;29.67;;;13.10;;
50683;SDS011;36654;45.042;38.994;2023-02-08T04:50:02;31.17;;;13.35;;
50683;SDS011;36654;45.042;38.994;2023-02-08T04:52:28;23.30;;;11.20;;
50683;SDS011;36654;45.042;38.994;2023-02-08T04:54:54;28.05;;;11.48;;
50683;SDS011;36654;45.042;38.994;2023-02-08T04:57:20;30.33;;;12.90;;
50683;SDS011;36654;45.042;38.994;2023-02-08T04:59:46;19.20;;;9.35;;
50683;SDS011;36654;45.042;38.994;2023-02-08T05:02:11;27.13;;;11.32;;
50683;SDS011;36654;45.042;38.994;2023-02-08T05:04:37;25.25;;;11.50;;
50683;SDS011;36654;45.042;38.994;2023-02-08T05:07:02;29.02;;;11.65;;
50683;SDS011;36654;45.042;38.994;2023-02-08T05:09:28;29.98;;;12.60;;
50683;SDS011;36654;45.042;38.994;2023-02-08T05:11:54;20.92;;;10.60;;
50683;SDS011;36654;45.042;38.994;2023-02-08T05:14:19;30.30;;;14.00;;
50683;SDS011;36654;45.042;38.994;2023-02-08T05:16:45;25.90;;;11.80;;
50683;SDS011;36654;45.042;38.994;2023-02-08T05:19:11;30.65;;;11.05;;
50683;SDS011;36654;45.042;38.994;2023-02-08T05:21:36;27.33;;;12.77;;
50683;SDS011;36654;45.042;38.994;2023-02-08T05:24:02;27.27;;;12.05;;
50683;SDS011;36654;45.042;38.994;2023-02-08T05:26:27;21.42;;;10.73;;
50683;SDS011;36654;45.042;38.994;2023-02-08T05:28:53;25.95;;;12.07;;
50683;SDS011;36654;45.042;38.994;2023-02-08T05:31:20;27.52;;;12.52;;
50683;SDS011;36654;45.042;38.994;2023-02-08T05:33:48;29.25;;;12.30;;
50683;SDS011;36654;45.042;38.994;2023-02-08T05:36:15;27.38;;;11.98;;
50683;SDS011;36654;45.042;38.994;2023-02-08T05:38:41;27.15;;;13.30;;
50683;SDS011;36654;45.042;38.994;2023-02-08T05:41:06;28.75;;;13.48;;
50683;SDS011;36654;45.042;38.994;2023-02-08T05:43:32;26.20;;;12.68;;
50683;SDS011;36654;45.042;38.994;2023-02-08T05:45:57;27.45;;;13.13;;
50683;SDS011;36654;45.042;38.994;2023-02-08T05:48:23;24.85;;;10.63;;
50683;SDS011;36654;45.042;38.994;2023-02-08T05:50:49;26.58;;;11.27;;
50683;SDS011;36654;45.042;38.994;2023-02-08T05:53:14;29.90;;;14.15;;
50683;SDS011;36654;45.042;38.994;2023-02-08T05:55:43;30.67;;;10.90;;
50683;SDS011;36654;45.042;38.994;2023-02-08T05:58:09;28.48;;;12.48;;
50683;SDS011;36654;45.042;38.994;2023-02-08T06:00:35;23.30;;;11.38;;
50683;SDS011;36654;45.042;38.994;2023-02-08T06:03:00;21.52;;;11.00;;
50683;SDS011;36654;45.042;38.994;2023-02-08T06:05:26;24.23;;;11.80;;
50683;SDS011;36654;45.042;38.994;2023-02-08T06:07:52;22.30;;;10.77;;
50683;SDS011;36654;45.042;38.994;2023-02-08T06:10:18;29.90;;;14.32;;
50683;SDS011;36654;45.042;38.994;2023-02-08T06:12:43;25.25;;;12.27;;
50683;SDS011;36654;45.042;38.994;2023-02-08T06:15:09;26.60;;;10.65;;
50683;SDS011;36654;45.042;38.994;2023-02-08T06:17:35;25.75;;;11.43;;
50683;SDS011;36654;45.042;38.994;2023-02-08T06:20:00;44.40;;;12.80;;
50683;SDS011;36654;45.042;38.994;2023-02-08T06:22:26;27.50;;;12.23;;
50683;SDS011;36654;45.042;38.994;2023-02-08T06:24:52;27.90;;;11.55;;
50683;SDS011;36654;45.042;38.994;2023-02-08T06:27:17;26.02;;;11.02;;
50683;SDS011;36654;45.042;38.994;2023-02-08T06:29:43;27.90;;;13.07;;
50683;SDS011;36654;45.042;38.994;2023-02-08T06:32:08;35.83;;;13.75;;
50683;SDS011;36654;45.042;38.994;2023-02-08T06:34:34;27.08;;;11.88;;
50683;SDS011;36654;45.042;38.994;2023-02-08T06:36:59;31.45;;;14.32;;
50683;SDS011;36654;45.042;38.994;2023-02-08T06:39:26;31.02;;;10.75;;
50683;SDS011;36654;45.042;38.994;2023-02-08T06:41:53;33.20;;;13.27;;
50683;SDS011;36654;45.042;38.994;2023-02-08T06:44:19;32.63;;;15.93;;
50683;SDS011;36654;45.042;38.994;2023-02-08T06:46:44;24.10;;;11.65;;
50683;SDS011;36654;45.042;38.994;2023-02-08T06:49:10;31.92;;;11.63;;
50683;SDS011;36654;45.042;38.994;2023-02-08T06:51:36;23.25;;;10.90;;
50683;SDS011;36654;45.042;38.994;2023-02-08T06:54:01;24.88;;;11.30;;
50683;SDS011;36654;45.042;38.994;2023-02-08T06:56:27;27.98;;;10.90;;
50683;SDS011;36654;45.042;38.994;2023-02-08T06:58:52;32.40;;;11.95;;
50683;SDS011;36654;45.042;38.994;2023-02-08T07:01:18;24.90;;;12.27;;
50683;SDS011;36654;45.042;38.994;2023-02-08T07:03:43;30.67;;;11.70;;
50683;SDS011;36654;45.042;38.994;2023-02-08T07:06:16;26.30;;;10.68;;
50683;SDS011;36654;45.042;38.994;2023-02-08T07:08:43;29.13;;;13.63;;
50683;SDS011;36654;45.042;38.994;2023-02-08T07:11:10;27.80;;;11.18;;
50683;SDS011;36654;45.042;38.994;2023-02-08T07:13:39;30.13;;;13.50;;
50683;SDS011;36654;45.042;38.994;2023-02-08T07:16:06;34.33;;;13.48;;
50683;SDS011;36654;45.042;38.994;2023-02-08T07:18:33;31.27;;;11.00;;
50683;SDS011;36654;45.042;38.994;2023-02-08T07:21:00;36.85;;;15.00;;
50683;SDS011;36654;45.042;38.994;2023-02-08T07:23:25;22.65;;;11.63;;
50683;SDS011;36654;45.042;38.994;2023-02-08T07:25:55;25.63;;;10.68;;
50683;SDS011;36654;45.042;38.994;2023-02-08T07:28:25;32.38;;;12.35;;
50683;SDS011;36654;45.042;38.994;2023-02-08T07:30:51;26.38;;;12.75;;
50683;SDS011;36654;45.042;38.994;2023-02-08T07:33:17;29.20;;;12.10;;
50683;SDS011;36654;45.042;38.994;2023-02-08T07:35:43;21.70;;;10.85;;
50683;SDS011;36654;45.042;38.994;2023-02-08T07:38:09;24.52;;;11.75;;
50683;SDS011;36654;45.042;38.994;2023-02-08T07:40:34;23.40;;;11.70;;
50683;SDS011;36654;45.042;38.994;2023-02-08T07:43:00;18.05;;;10.80;;
50683;SDS011;36654;45.042;38.994;2023-02-08T07:45:25;27.58;;;13.32;;
50683;SDS011;36654;45.042;38.994;2023-02-08T07:47:51;22.65;;;10.27;;
50683;SDS011;36654;45.042;38.994;2023-02-08T07:50:17;31.65;;;11.68;;
50683;SDS011;36654;45.042;38.994;2023-02-08T07:52:43;27.50;;;12.43;;
50683;SDS011;36654;45.042;38.994;2023-02-08T07:55:11;32.45;;;12.38;;
50683;SDS011;36654;45.042;38.994;2023-02-08T07:57:41;23.92;;;11.23;;
50683;SDS011;36654;45.042;38.994;2023-02-08T08:00:08;27.50;;;12.27;;
50683;SDS011;36654;45.042;38.994;2023-02-08T08:02:34;23.15;;;10.13;;
50683;SDS011;36654;45.042;38.994;2023-02-08T08:04:59;24.98;;;10.90;;
50683;SDS011;36654;45.042;38.994;2023-02-08T08:07:25;24.70;;;10.55;;
50683;SDS011;36654;45.042;38.994;2023-02-08T08:09:50;22.52;;;10.98;;
50683;SDS011;36654;45.042;38.994;2023-02-08T08:12:16;24.13;;;10.98;;
50683;SDS011;36654;45.042;38.994;2023-02-08T08:14:42;22.42;;;11.25;;
50683;SDS011;36654;45.042;38.994;2023-02-08T08:17:07;20.33;;;11.23;;
50683;SDS011;36654;45.042;38.994;2023-02-08T08:19:33;21.50;;;11.70;;
50683;SDS011;36654;45.042;38.994;2023-02-08T08:21:58;25.95;;;11.82;;
50683;SDS011;36654;45.042;38.994;2023-02-08T08:24:24;28.23;;;12.93;;
50683;SDS011;36654;45.042;38.994;2023-02-08T08:26:49;26.65;;;10.77;;
50683;SDS011;36654;45.042;38.994;2023-02-08T08:29:15;26.55;;;12.15;;
50683;SDS011;36654;45.042;38.994;2023-02-08T08:31:41;23.55;;;11.88;;
50683;SDS011;36654;45.042;38.994;2023-02-08T08:34:07;31.95;;;11.15;;
50683;SDS011;36654;45.042;38.994;2023-02-08T08:36:33;22.48;;;11.70;;
50683;SDS011;36654;45.042;38.994;2023-02-08T08:38:58;30.20;;;11.38;;
50683;SDS011;36654;45.042;38.994;2023-02-08T08:41:24;23.60;;;11.43;;
50683;SDS011;36654;45.042;38.994;2023-02-08T08:43:51;27.38;;;11.25;;
50683;SDS011;36654;45.042;38.994;2023-02-08T08:46:17;29.83;;;12.60;;
50683;SDS011;36654;45.042;38.994;2023-02-08T08:48:44;28.13;;;11.57;;
50683;SDS011;36654;45.042;38.994;2023-02-08T08:51:11;20.05;;;10.13;;
50683;SDS011;36654;45.042;38.994;2023-02-08T08:53:38;24.88;;;12.02;;
50683;SDS011;36654;45.042;38.994;2023-02-08T08:56:04;17.88;;;9.43;;
50683;SDS011;36654;45.042;38.994;2023-02-08T08:58:30;20.00;;;9.32;;
50683;SDS011;36654;45.042;38.994;2023-02-08T09:00:56;23.08;;;10.35;;
50683;SDS011;36654;45.042;38.994;2023-02-08T09:03:23;22.95;;;10.75;;
50683;SDS011;36654;45.042;38.994;2023-02-08T09:05:49;21.77;;;10.63;;
50683;SDS011;36654;45.042;38.994;2023-02-08T09:08:15;23.50;;;10.48;;
50683;SDS011;36654;45.042;38.994;2023-02-08T09:10:40;20.00;;;9.85;;
50683;SDS011;36654;45.042;38.994;2023-02-08T09:13:06;22.90;;;10.70;;
50683;SDS011;36654;45.042;38.994;2023-02-08T09:15:32;21.90;;;10.63;;
50683;SDS011;36654;45.042;38.994;2023-02-08T09:17:58;21.55;;;10.38;;
50683;SDS011;36654;45.042;38.994;2023-02-08T09:20:23;20.48;;;9.55;;
50683;SDS011;36654;45.042;38.994;2023-02-08T09:22:49;24.83;;;10.52;;
50683;SDS011;36654;45.042;38.994;2023-02-08T09:25:14;20.90;;;9.20;;
50683;SDS011;36654;45.042;38.994;2023-02-08T09:27:40;16.90;;;9.30;;
50683;SDS011;36654;45.042;38.994;2023-02-08T09:30:06;25.02;;;11.80;;
50683;SDS011;36654;45.042;38.994;2023-02-08T09:32:32;20.38;;;9.52;;
50683;SDS011;36654;45.042;38.994;2023-02-08T09:34:59;21.40;;;9.57;;
50683;SDS011;36654;45.042;38.994;2023-02-08T09:37:26;22.13;;;9.02;;
50683;SDS011;36654;45.042;38.994;2023-02-08T09:39:52;29.58;;;11.75;;
50683;SDS011;36654;45.042;38.994;2023-02-08T09:47:32;19.58;;;8.98;;
50683;SDS011;36654;45.042;38.994;2023-02-08T09:50:05;19.83;;;9.57;;
50683;SDS011;36654;45.042;38.994;2023-02-08T09:52:57;18.85;;;9.90;;
50683;SDS011;36654;45.042;38.994;2023-02-08T09:55:37;16.88;;;9.18;;
50683;SDS011;36654;45.042;38.994;2023-02-08T09:58:42;23.40;;;11.35;;
50683;SDS011;36654;45.042;38.994;2023-02-08T10:06:54;17.40;;;8.60;;
50683;SDS011;36654;45.042;38.994;2023-02-08T10:09:21;21.95;;;9.68;;
50683;SDS011;36654;45.042;38.994;2023-02-08T10:17:33;16.70;;;9.07;;
50683;SDS011;36654;45.042;38.994;2023-02-08T10:22:51;18.35;;;8.82;;
50683;SDS011;36654;45.042;38.994;2023-02-08T10:33:31;19.45;;;9.75;;
50683;SDS011;36654;45.042;38.994;2023-02-08T10:36:11;26.58;;;10.05;;
50683;SDS011;36654;45.042;38.994;2023-02-08T10:38:50;20.10;;;10.18;;
50683;SDS011;36654;45.042;38.994;2023-02-08T10:41:19;15.90;;;8.70;;
50683;SDS011;36654;45.042;38.994;2023-02-08T10:44:34;20.02;;;9.25;;
50683;SDS011;36654;45.042;38.994;2023-02-08T10:49:56;17.48;;;9.30;;
50683;SDS011;36654;45.042;38.994;2023-02-08T10:52:43;24.88;;;9.85;;
50683;SDS011;36654;45.042;38.994;2023-02-08T10:55:12;18.98;;;8.52;;
50683;SDS011;36654;45.042;38.994;2023-02-08T10:57:42;22.85;;;10.68;;
50683;SDS011;36654;45.042;38.994;2023-02-08T11:02:49;14.88;;;7.68;;
50683;SDS011;36654;45.042;38.994;2023-02-08T11:05:20;20.08;;;8.60;;
50683;SDS011;36654;45.042;38.994;2023-02-08T11:10:33;17.10;;;8.13;;
50683;SDS011;36654;45.042;38.994;2023-02-08T11:16:08;22.20;;;9.63;;
50683;SDS011;36654;45.042;38.994;2023-02-08T11:20:51;21.58;;;9.00;;
50683;SDS011;36654;45.042;38.994;2023-02-08T11:23:22;16.40;;;8.15;;
50683;SDS011;36654;45.042;38.994;2023-02-08T11:25:54;21.55;;;8.50;;
50683;SDS011;36654;45.042;38.994;2023-02-08T11:28:36;17.48;;;9.05;;
50683;SDS011;36654;45.042;38.994;2023-02-08T11:31:08;22.60;;;9.13;;
50683;SDS011;36654;45.042;38.994;2023-02-08T11:34:05;21.02;;;9.63;;
50683;SDS011;36654;45.042;38.994;2023-02-08T11:36:35;20.80;;;8.63;;
50683;SDS011;36654;45.042;38.994;2023-02-08T11:39:24;19.55;;;9.00;;
50683;SDS011;36654;45.042;38.994;2023-02-08T11:41:54;20.77;;;10.20;;
50683;SDS011;36654;45.042;38.994;2023-02-08T11:44:30;19.52;;;9.90;;
50683;SDS011;36654;45.042;38.994;2023-02-08T11:47:05;18.38;;;9.68;;
50683;SDS011;36654;45.042;38.994;2023-02-08T11:49:37;24.90;;;9.32;;
50683;SDS011;36654;45.042;38.994;2023-02-08T11:52:05;23.05;;;10.82;;
50683;SDS011;36654;45.042;38.994;2023-02-08T11:54:48;16.40;;;8.85;;
50683;SDS011;36654;45.042;38.994;2023-02-08T11:57:15;20.73;;;9.27;;
50683;SDS011;36654;45.042;38.994;2023-02-08T11:59:44;21.58;;;10.63;;
50683;SDS011;36654;45.042;38.994;2023-02-08T12:02:25;23.35;;;8.80;;
50683;SDS011;36654;45.042;38.994;2023-02-08T12:04:52;19.02;;;8.13;;
50683;SDS011;36654;45.042;38.994;2023-02-08T12:23:57;20.85;;;8.55;;
50683;SDS011;36654;45.042;38.994;2023-02-08T12:26:49;19.88;;;9.32;;
50683;SDS011;36654;45.042;38.994;2023-02-08T12:29:19;14.45;;;7.22;;
50683;SDS011;36654;45.042;38.994;2023-02-08T12:40:29;19.75;;;10.77;;
50683;SDS011;36654;45.042;38.994;2023-02-08T12:54:06;18.98;;;9.75;;
50683;SDS011;36654;45.042;38.994;2023-02-08T12:56:37;20.15;;;9.43;;
50683;SDS011;36654;45.042;38.994;2023-02-08T12:59:11;21.95;;;8.05;;
50683;SDS011;36654;45.042;38.994;2023-02-08T13:02:16;21.33;;;11.13;;
50683;SDS011;36654;45.042;38.994;2023-02-08T13:04:51;24.17;;;12.80;;
50683;SDS011;36654;45.042;38.994;2023-02-08T13:10:03;17.58;;;9.57;;
50683;SDS011;36654;45.042;38.994;2023-02-08T13:12:58;14.10;;;8.10;;
50683;SDS011;36654;45.042;38.994;2023-02-08T13:15:28;17.77;;;8.52;;
50683;SDS011;36654;45.042;38.994;2023-02-08T13:18:03;17.30;;;9.35;;
50683;SDS011;36654;45.042;38.994;2023-02-08T13:20:37;14.60;;;7.82;;
50683;SDS011;36654;45.042;38.994;2023-02-08T13:25:49;14.25;;;7.13;;
50683;SDS011;36654;45.042;38.994;2023-02-08T13:28:23;16.98;;;7.40;;
50683;SDS011;36654;45.042;38.994;2023-02-08T13:33:41;17.73;;;8.77;;
50683;SDS011;36654;45.042;38.994;2023-02-08T13:36:56;23.05;;;9.68;;
50683;SDS011;36654;45.042;38.994;2023-02-08T13:41:52;20.55;;;10.18;;
50683;SDS011;36654;45.042;38.994;2023-02-08T13:44:23;21.65;;;11.15;;
50683;SDS011;36654;45.042;38.994;2023-02-08T13:47:02;17.00;;;8.60;;
50683;SDS011;36654;45.042;38.994;2023-02-08T13:57:59;21.90;;;10.00;;
50683;SDS011;36654;45.042;38.994;2023-02-08T14:00:27;25.92;;;9.75;;
50683;SDS011;36654;45.042;38.994;2023-02-08T14:03:01;22.17;;;10.07;;
50683;SDS011;36654;45.042;38.994;2023-02-08T14:08:35;19.55;;;8.48;;
50683;SDS011;36654;45.042;38.994;2023-02-08T14:13:56;21.48;;;11.95;;
50683;SDS011;36654;45.042;38.994;2023-02-08T14:19:04;18.02;;;9.73;;
50683;SDS011;36654;45.042;38.994;2023-02-08T14:21:46;23.55;;;8.60;;
50683;SDS011;36654;45.042;38.994;2023-02-08T14:24:26;19.17;;;8.35;;
50683;SDS011;36654;45.042;38.994;2023-02-08T14:27:34;17.15;;;9.10;;
50683;SDS011;36654;45.042;38.994;2023-02-08T14:32:37;21.55;;;8.88;;
50683;SDS011;36654;45.042;38.994;2023-02-08T14:35:08;17.98;;;10.23;;
50683;SDS011;36654;45.042;38.994;2023-02-08T14:38:06;19.83;;;9.48;;
50683;SDS011;36654;45.042;38.994;2023-02-08T14:40:48;23.52;;;9.40;;
50683;SDS011;36654;45.042;38.994;2023-02-08T14:45:42;20.83;;;11.77;;
50683;SDS011;36654;45.042;38.994;2023-02-08T14:51:01;19.95;;;9.00;;
50683;SDS011;36654;45.042;38.994;2023-02-08T14:53:38;20.10;;;8.25;;
50683;SDS011;36654;45.042;38.994;2023-02-08T14:56:20;19.88;;;8.25;;
50683;SDS011;36654;45.042;38.994;2023-02-08T14:58:54;23.83;;;11.32;;
50683;SDS011;36654;45.042;38.994;2023-02-08T15:03:52;22.33;;;9.45;;
50683;SDS011;36654;45.042;38.994;2023-02-08T15:09:01;24.45;;;10.35;;
50683;SDS011;36654;45.042;38.994;2023-02-08T15:11:31;27.00;;;10.20;;
50683;SDS011;36654;45.042;38.994;2023-02-08T15:14:00;14.63;;;8.35;;
50683;SDS011;36654;45.042;38.994;2023-02-08T15:16:28;15.80;;;7.75;;
50683;SDS011;36654;45.042;38.994;2023-02-08T15:18:59;16.88;;;7.97;;
50683;SDS011;36654;45.042;38.994;2023-02-08T15:21:28;15.88;;;7.18;;
50683;SDS011;36654;45.042;38.994;2023-02-08T15:24:00;20.25;;;9.73;;
50683;SDS011;36654;45.042;38.994;2023-02-08T15:26:52;19.75;;;9.68;;
50683;SDS011;36654;45.042;38.994;2023-02-08T15:29:23;13.88;;;7.35;;
50683;SDS011;36654;45.042;38.994;2023-02-08T15:31:50;16.63;;;7.88;;
50683;SDS011;36654;45.042;38.994;2023-02-08T15:34:17;19.95;;;9.35;;
50683;SDS011;36654;45.042;38.994;2023-02-08T15:36:49;18.70;;;8.80;;
50683;SDS011;36654;45.042;38.994;2023-02-08T15:42:03;17.13;;;9.00;;
50683;SDS011;36654;45.042;38.994;2023-02-08T15:44:31;26.50;;;11.88;;
50683;SDS011;36654;45.042;38.994;2023-02-08T15:46:59;18.95;;;8.75;;
50683;SDS011;36654;45.042;38.994;2023-02-08T15:49:35;16.17;;;7.80;;
50683;SDS011;36654;45.042;38.994;2023-02-08T15:52:04;17.13;;;9.70;;
50683;SDS011;36654;45.042;38.994;2023-02-08T15:54:31;16.98;;;8.10;;
50683;SDS011;36654;45.042;38.994;2023-02-08T15:57:05;18.15;;;8.27;;
50683;SDS011;36654;45.042;38.994;2023-02-08T15:59:42;19.38;;;9.90;;
50683;SDS011;36654;45.042;38.994;2023-02-08T16:04:45;17.98;;;10.20;;
50683;SDS011;36654;45.042;38.994;2023-02-08T16:09:57;20.00;;;9.65;;
50683;SDS011;36654;45.042;38.994;2023-02-08T16:12:24;17.38;;;8.00;;
50683;SDS011;36654;45.042;38.994;2023-02-08T16:14:51;14.52;;;7.70;;
50683;SDS011;36654;45.042;38.994;2023-02-08T16:17:37;23.50;;;9.23;;
50683;SDS011;36654;45.042;38.994;2023-02-08T16:22:58;15.05;;;6.20;;
50683;SDS011;36654;45.042;38.994;2023-02-08T16:25:44;21.63;;;9.00;;
50683;SDS011;36654;45.042;38.994;2023-02-08T16:28:21;16.63;;;8.13;;
50683;SDS011;36654;45.042;38.994;2023-02-08T16:30:57;14.48;;;8.40;;
50683;SDS011;36654;45.042;38.994;2023-02-08T16:33:25;16.13;;;8.05;;
50683;SDS011;36654;45.042;38.994;2023-02-08T16:35:51;18.52;;;9.00;;
50683;SDS011;36654;45.042;38.994;2023-02-08T16:38:21;15.77;;;9.10;;
50683;SDS011;36654;45.042;38.994;2023-02-08T16:48:40;22.48;;;9.50;;
50683;SDS011;36654;45.042;38.994;2023-02-08T16:51:14;19.15;;;9.25;;
50683;SDS011;36654;45.042;38.994;2023-02-08T16:53:45;15.13;;;7.38;;
50683;SDS011;36654;45.042;38.994;2023-02-08T16:56:12;24.45;;;8.13;;
50683;SDS011;36654;45.042;38.994;2023-02-08T16:58:41;14.60;;;7.10;;
50683;SDS011;36654;45.042;38.994;2023-02-08T17:01:08;16.67;;;8.52;;
50683;SDS011;36654;45.042;38.994;2023-02-08T17:03:37;18.30;;;8.13;;
50683;SDS011;36654;45.042;38.994;2023-02-08T17:06:03;12.73;;;6.63;;
50683;SDS011;36654;45.042;38.994;2023-02-08T17:08:29;12.38;;;5.93;;
50683;SDS011;36654;45.042;38.994;2023-02-08T17:10:54;18.70;;;8.23;;
50683;SDS011;36654;45.042;38.994;2023-02-08T17:13:23;16.48;;;7.93;;
50683;SDS011;36654;45.042;38.994;2023-02-08T17:15:51;16.50;;;6.45;;
50683;SDS011;36654;45.042;38.994;2023-02-08T17:18:17;15.68;;;8.20;;
50683;SDS011;36654;45.042;38.994;2023-02-08T17:20:43;15.77;;;8.00;;
50683;SDS011;36654;45.042;38.994;2023-02-08T17:23:09;18.00;;;9.40;;
50683;SDS011;36654;45.042;38.994;2023-02-08T17:25:36;25.85;;;11.35;;
50683;SDS011;36654;45.042;38.994;2023-02-08T17:28:10;20.80;;;9.95;;